Villaquilambre, Spain
Current Conditions -  °F | °C
As of 9:00 PM on Tuesday 21 Oct 2014 (Local Time) from LELN Reporting Station
Clear Clear  
Wind Chill: 63°   Ceiling: Unl
Heat Index: 63°   Visibility: 6mi
Dew Point: 50°   Wind: 7mph
Humidity: 63%   Direction: 290°WNW
Pressure: 30.42"   Gusts: NA
Location:  42.65°N, 5.56°W
Report Text: LELN 211900Z 29006KT CAVOK 17/10 Q1030
Loading
Personal Weather Stations






























Interactive Weather Map
Tropical Storm Tracking
New forecast layout! Learn more

10-Day Weather Forecast

Advertisements
Track Severe Weather on mobile